首页
METAR-TAF:

METAR-TAF

机场 :

巴勒克埃西爾, 土耳其

纬度: 39-37N, 经度: 027-55E, 海拔: 101米

当前天气观测

该预报发布于30分钟前的05:50 UTC
风速3节,风向北转东北,在之间变化
温度 26°C
湿度 58%
气压 1006 hPa
能见度10公里或以上
少量云层高于3500英尺
散云层高于10000英尺

METAR: LTBF 180550Z 03003KT 350V080 9999 FEW035 SCT100 26/17 Q1006 NOSIG

时间: 09:20 (06:20 UTC)

预报

该预报发布于1小时和40分钟前的04:40 UTC
预报有效从18日的 06点(UTC)到 18日的 15点(UTC)
风速5节,风向
能见度10公里或以上
散云层高于3500英尺
散云层高于10000英尺
几率 30%
从 18日的 12点(UTC)到 18日的 15点(UTC)
多云层高于3500英尺
小阵雨

TAF: LTBF 180440Z 1806/1815 01005KT 9999 SCT035 SCT100 PROB30 1812/1815 -SHRA BKN035

超过4000个机场的气象观测和天气预报(METAR&TAF报告)。

可查询的气象台以黄色和红色小点在地图上表示。

将鼠标移到小点上方,可查看气象台名称。

然后点击查看天气观测和预报。

如需切换地图:点击带黑十字的绿色按钮放大地图;点击带横线的绿色按钮缩小地图;或者点击绿色箭头查看邻近地区的地图。


METAR-TAF: